Artesian, Iowa
Current Conditions -  °F | °C
As of 3:54 PM on Friday 28 Nov 2014 (Local Time) from KALO Reporting Station
Clear Clear  
Wind Chill: 20°   Ceiling: Unl
Heat Index: 31°   Visibility: 10mi
Dew Point: 25°   Wind: 15mph
Humidity: 79%   Direction: 160°SSE
Pressure: 29.83"   Gusts: NA
Location:  42.787°N, 92.4284°W
Report Text: KALO 282154Z 16013KT 10SM CLR M01/M04 A2983 RMK AO2 SLP112 T10061039
Loading
Personal Weather Stations






























Interactive Weather Map New forecast layout! Learn more

10-Day Weather Forecast

Advertisements
Track Severe Weather on mobile